Time;durP1;ratioP1;P1;durP2;ratioP2;P2;SDS_P1;SDS_P2;PMS_P1;PMS_P2;Temp;Humidity;BMP_temperature;BMP_pressure;BME280_temperature;BME280_humidity;BME280_pressure;Samples;Min_cycle;Max_cycle;Signal;HPM_P1;HPM_P2
2022/05/05 00:01:32;;;;;;;5.83;5.20;;;;;;;10.85;71.83;100839.38;4947620;29;20213;-71
2022/05/05 00:03:58;;;;;;;7.10;4.80;;;;;;;10.81;76.30;100849.03;4945717;29;20199;-71
2022/05/05 00:06:25;;;;;;;8.93;5.40;;;;;;;10.76;73.86;100846.53;4947898;28;20230;-71
2022/05/05 00:08:52;;;;;;;5.90;4.80;;;;;;;10.77;72.46;100836.97;4938546;28;20227;-71
2022/05/05 00:14:24;;;;;;;5.50;4.90;;;;;;;10.76;74.68;100833.50;4906709;29;20205;-72
2022/05/05 00:16:51;;;;;;;6.73;4.97;;;;;;;10.69;77.15;100838.88;4950242;29;20210;-71
2022/05/05 00:19:18;;;;;;;5.53;4.90;;;;;;;10.66;76.54;100836.34;4947494;29;20227;-72
2022/05/05 00:21:44;;;;;;;6.23;5.00;;;;;;;10.68;75.88;100829.34;4943028;29;20218;-72
2022/05/05 00:24:11;;;;;;;5.47;4.97;;;;;;;10.71;76.48;100840.56;4941745;29;20206;-72
2022/05/05 00:26:37;;;;;;;6.33;4.80;;;;;;;10.73;76.90;100837.91;4935408;29;20218;-71
2022/05/05 00:29:05;;;;;;;5.73;4.90;;;;;;;10.68;75.68;100829.34;4943702;29;20222;-72
2022/05/05 00:31:32;;;;;;;6.20;5.10;;;;;;;10.66;75.08;100836.34;4943767;28;20211;-72
2022/05/05 00:33:59;;;;;;;5.50;4.93;;;;;;;10.66;75.81;100832.00;4945562;28;20224;-72
2022/05/05 00:36:26;;;;;;;7.37;4.87;;;;;;;10.63;76.48;100824.25;4942178;29;20674;-72
2022/05/05 00:38:52;;;;;;;6.10;5.43;;;;;;;10.60;76.63;100819.94;4950431;29;20226;-72
2022/05/05 00:41:19;;;;;;;5.40;4.87;;;;;;;10.64;76.25;100825.09;4943561;29;20278;-72
2022/05/05 00:43:45;;;;;;;6.00;5.40;;;;;;;10.64;76.28;100819.88;4941448;29;20187;-72
2022/05/05 00:46:12;;;;;;;7.60;5.40;;;;;;;10.65;76.18;100817.22;4942054;29;20749;-72
2022/05/05 00:48:42;;;;;;;7.87;5.63;;;;;;;10.65;76.07;100817.22;4938828;29;20214;-71
2022/05/05 00:51:09;;;;;;;5.90;4.83;;;;;;;10.66;76.09;100813.75;4943598;28;20199;-72
2022/05/05 00:53:36;;;;;;;6.07;5.20;;;;;;;10.65;76.76;100812.03;4944122;29;20219;-72
2022/05/05 00:56:06;;;;;;;5.77;5.13;;;;;;;10.64;76.18;100807.72;4948152;29;20210;-71
2022/05/05 00:58:32;;;;;;;6.60;5.53;;;;;;;10.65;76.68;100811.16;4945487;29;20262;-72
2022/05/05 01:01:03;;;;;;;5.67;5.17;;;;;;;10.65;77.11;100809.41;4940682;29;20202;-71
2022/05/05 01:03:32;;;;;;;8.97;5.13;;;;;;;10.66;76.83;100810.25;4937395;29;20681;-72
2022/05/05 01:06:00;;;;;;;5.67;5.17;;;;;;;10.68;76.68;100808.50;4937316;29;20215;-72
2022/05/05 01:08:26;;;;;;;7.03;5.30;;;;;;;10.71;76.00;100811.88;4942325;29;20227;-71
2022/05/05 01:10:53;;;;;;;6.43;5.53;;;;;;;10.76;75.62;100816.97;4937482;29;20202;-71
2022/05/05 01:13:19;;;;;;;5.93;5.13;;;;;;;10.76;76.46;100812.63;4936581;29;20203;-69
2022/05/05 01:15:46;;;;;;;5.50;4.87;;;;;;;10.76;78.87;100803.94;4936085;29;20566;-72
2022/05/05 01:18:12;;;;;;;6.70;5.87;;;;;;;10.73;79.35;100809.22;4938396;29;20436;-72
2022/05/05 01:20:44;;;;;;;5.70;5.10;;;;;;;10.72;81.13;100805.75;4944027;29;20218;-72
2022/05/05 01:23:12;;;;;;;7.73;5.57;;;;;;;10.68;80.32;100811.97;4950556;29;20211;-72
2022/05/05 01:28:24;;;;;;;9.43;6.03;;;;;;;10.60;82.11;100816.47;4942368;29;20236;-72
2022/05/05 01:30:51;;;;;;;7.67;5.67;;;;;;;10.57;83.33;100814.81;4941855;28;20202;-72
2022/05/05 01:33:19;;;;;;;8.23;6.20;;;;;;;10.53;84.85;100817.53;4947992;29;20203;-72
2022/05/05 01:35:49;;;;;;;8.20;5.53;;;;;;;10.52;86.08;100810.59;4950283;28;20199;-72
2022/05/05 01:38:19;;;;;;;7.87;5.97;;;;;;;10.51;86.24;100814.09;4946159;29;20215;-72
2022/05/05 01:40:46;;;;;;;7.13;6.20;;;;;;;10.52;87.18;100815.81;4941396;29;20662;-72
2022/05/05 01:43:14;;;;;;;5.83;5.30;;;;;;;10.47;86.63;100817.66;4943758;29;20214;-72
2022/05/05 01:45:40;;;;;;;7.20;5.97;;;;;;;10.44;87.65;100815.13;4943118;28;20810;-72
2022/05/05 01:48:07;;;;;;;7.03;6.07;;;;;;;10.44;87.72;100818.59;4943670;29;20211;-71
2022/05/05 01:50:34;;;;;;;7.03;5.63;;;;;;;10.44;88.65;100815.13;4941395;28;20563;-72
2022/05/05 01:53:01;;;;;;;7.60;5.77;;;;;;;10.39;88.20;100826.50;4947319;29;20209;-72
2022/05/05 01:55:30;;;;;;;8.50;5.90;;;;;;;10.38;89.06;100826.56;4949429;29;20542;-72
2022/05/05 01:57:57;;;;;;;7.63;6.13;;;;;;;10.38;89.51;100826.56;4939532;28;20274;-71
2022/05/05 02:00:24;;;;;;;7.17;5.67;;;;;;;10.36;90.31;100831.78;4935604;29;20292;-72
2022/05/05 02:02:50;;;;;;;7.87;6.20;;;;;;;10.34;91.22;100840.53;4939950;28;20433;-72
2022/05/05 02:05:17;;;;;;;6.67;5.53;;;;;;;10.32;91.50;100839.69;4943476;28;20237;-72
2022/05/05 02:07:45;;;;;;;6.97;6.07;;;;;;;10.31;90.81;100837.97;4946466;28;20308;-72
2022/05/05 02:10:14;;;;;;;7.30;5.93;;;;;;;10.35;91.03;100834.44;4937876;28;20210;-71
2022/05/05 02:12:43;;;;;;;7.40;6.03;;;;;;;10.34;89.25;100841.41;4945392;29;20539;-71
2022/05/05 02:15:11;;;;;;;8.27;5.60;;;;;;;10.32;90.49;100837.09;4941735;28;20203;-72
2022/05/05 02:17:40;;;;;;;10.93;6.70;;;;;;;10.32;89.58;100837.94;4946817;28;20251;-72
2022/05/05 02:20:08;;;;;;;6.17;5.57;;;;;;;10.37;91.33;100836.09;4941493;28;20205;-72
2022/05/05 02:22:35;;;;;;;6.90;5.80;;;;;;;10.39;90.34;100836.06;4942593;29;20258;-72
2022/05/05 02:25:02;;;;;;;7.67;5.87;;;;;;;10.41;90.57;100832.56;4943437;28;20218;-71
2022/05/05 02:27:29;;;;;;;8.40;5.70;;;;;;;10.42;90.45;100847.28;4941306;29;20210;-72
2022/05/05 02:29:56;;;;;;;6.30;5.70;;;;;;;10.46;92.17;100840.25;4945709;29;20225;-71
2022/05/05 02:32:23;;;;;;;7.57;6.07;;;;;;;10.47;90.90;100841.13;4947409;29;20206;-72
2022/05/05 02:34:49;;;;;;;7.73;5.63;;;;;;;10.49;90.03;100841.94;4939902;28;20225;-72
2022/05/05 02:40:00;;;;;;;8.03;6.53;;;;;;;10.54;91.26;100835.75;4937815;29;20591;-72
2022/05/05 02:42:27;;;;;;;8.60;6.77;;;;;;;10.54;92.60;100832.28;4935463;29;20200;-69
2022/05/05 02:44:53;;;;;;;8.17;7.37;;;;;;;10.55;92.79;100828.75;4950163;28;20210;-72
2022/05/05 02:47:21;;;;;;;7.87;7.07;;;;;;;10.56;93.13;100833.09;4938166;28;20218;-72
2022/05/05 02:49:47;;;;;;;8.07;7.07;;;;;;;10.61;93.41;100833.84;4949842;29;20202;-72
2022/05/05 02:52:14;;;;;;;8.70;7.77;;;;;;;10.61;93.47;100828.63;4942416;29;20198;-71
2022/05/05 02:54:50;;;;;;;8.67;7.67;;;;;;;10.65;94.10;100827.66;4942230;28;20696;-72
2022/05/05 02:57:17;;;;;;;10.20;8.43;;;;;;;10.66;94.49;100823.28;4938980;28;20667;-71
2022/05/05 02:59:44;;;;;;;9.07;8.13;;;;;;;10.65;94.85;100832.03;4945956;29;20224;-70
2022/05/05 03:02:10;;;;;;;12.00;8.57;;;;;;;10.65;96.43;100832.03;4944539;29;20203;-71
2022/05/05 03:04:38;;;;;;;10.17;8.13;;;;;;;10.65;97.81;100839.84;4944935;28;20230;-72
2022/05/05 03:07:05;;;;;;;10.47;8.50;;;;;;;10.67;97.71;100828.47;4948354;28;20278;-72
2022/05/05 03:09:32;;;;;;;9.90;8.23;;;;;;;10.67;98.59;100830.25;4939616;29;20227;-71
2022/05/05 03:11:59;;;;;;;10.13;8.60;;;;;;;10.66;100.00;100829.38;4938182;29;20282;-72
2022/05/05 03:14:25;;;;;;;9.10;8.30;;;;;;;10.66;100.00;100838.94;4940072;29;20202;-71
2022/05/05 03:16:52;;;;;;;10.20;8.67;;;;;;;10.68;100.00;100842.41;4940335;29;20207;-72
2022/05/05 03:19:18;;;;;;;14.87;10.47;;;;;;;10.69;100.00;100844.94;4951303;29;20230;-72
2022/05/05 03:21:46;;;;;;;9.93;8.93;;;;;;;10.70;100.00;100849.28;4947681;28;20209;-71
2022/05/05 03:24:12;;;;;;;12.90;9.23;;;;;;;10.71;100.00;100847.53;4945747;29;20713;-72
2022/05/05 03:26:39;;;;;;;12.93;10.57;;;;;;;10.70;100.00;100851.03;4950010;29;20215;-70
2022/05/05 03:29:08;;;;;;;11.50;10.40;;;;;;;10.69;100.00;100846.69;4940770;29;20721;-70
2022/05/05 03:31:42;;;;;;;14.17;10.37;;;;;;;10.66;100.00;100852.88;4939497;28;20198;-72
2022/05/05 03:34:11;;;;;;;13.03;10.70;;;;;;;10.66;100.00;100865.03;4942205;29;20207;-72
2022/05/05 03:36:48;;;;;;;14.00;10.80;;;;;;;10.62;100.00;100864.22;4944320;28;20188;-71
2022/05/05 03:39:21;;;;;;;13.53;10.63;;;;;;;10.63;100.00;100871.19;4945531;29;20222;-71
2022/05/05 03:41:57;;;;;;;12.03;10.83;;;;;;;10.66;100.00;100878.06;4939388;29;20279;-70
2022/05/05 03:44:32;;;;;;;13.60;10.20;;;;;;;10.66;100.00;100886.75;4947986;29;20202;-72
2022/05/05 03:47:19;;;;;;;12.33;11.00;;;;;;;10.66;100.00;100889.38;4949313;28;20218;-71
2022/05/05 03:52:40;;;;;;;12.63;11.07;;;;;;;10.67;100.00;100891.06;4946446;29;20286;-72
2022/05/05 03:55:09;;;;;;;12.97;11.70;;;;;;;10.69;100.00;100897.09;4945247;28;20794;-70
2022/05/05 03:57:35;;;;;;;11.73;10.53;;;;;;;10.70;100.00;100904.03;4943466;29;20207;-70
2022/05/05 04:00:03;;;;;;;12.80;11.40;;;;;;;10.71;100.00;100904.88;4946346;29;20218;-71
2022/05/05 04:02:38;;;;;;;15.47;11.67;;;;;;;10.71;100.00;100897.94;4944906;28;20686;-71
2022/05/05 04:05:05;;;;;;;13.97;11.87;;;;;;;10.72;100.00;100902.25;4949370;28;20199;-71
2022/05/05 04:07:32;;;;;;;13.33;11.93;;;;;;;10.73;100.00;100900.50;4939318;28;20219;-70
2022/05/05 04:09:58;;;;;;;14.73;12.40;;;;;;;10.74;100.00;100908.28;4939314;29;20204;-71
2022/05/05 04:12:26;;;;;;;13.23;11.83;;;;;;;10.75;100.00;100901.34;4941465;29;20209;-71
2022/05/05 04:14:53;;;;;;;15.53;12.50;;;;;;;10.75;100.00;100907.41;4944406;29;20191;-71
2022/05/05 04:17:19;;;;;;;13.40;12.00;;;;;;;10.73;100.00;100908.31;4942515;28;20241;-71
2022/05/05 04:19:45;;;;;;;14.03;12.30;;;;;;;10.73;100.00;100903.97;4948599;29;20605;-71
2022/05/05 04:22:12;;;;;;;15.50;12.67;;;;;;;10.72;100.00;100902.25;4941637;29;20203;-70
2022/05/05 04:24:38;;;;;;;14.37;12.87;;;;;;;10.73;100.00;100906.59;4941519;28;20292;-71
2022/05/05 04:27:05;;;;;;;14.90;12.63;;;;;;;10.72;100.00;100906.63;4946267;29;20212;-71
2022/05/05 04:29:33;;;;;;;14.83;13.23;;;;;;;10.74;100.00;100904.84;4944604;28;20237;-71
2022/05/05 04:32:00;;;;;;;14.20;12.47;;;;;;;10.72;100.00;100904.00;4938308;29;20204;-71
2022/05/05 04:34:26;;;;;;;16.40;13.30;;;;;;;10.73;100.00;100906.59;4938594;29;20203;-71
2022/05/05 04:36:53;;;;;;;14.60;13.07;;;;;;;10.73;100.00;100908.31;4946012;29;20206;-70
2022/05/05 04:39:19;;;;;;;13.90;12.33;;;;;;;10.74;100.00;100913.50;4948691;28;20275;-71
2022/05/05 04:41:46;;;;;;;13.97;12.60;;;;;;;10.77;100.00;100918.66;4944226;28;20290;-71
2022/05/05 04:44:12;;;;;;;15.50;14.00;;;;;;;10.79;100.00;100910.81;4942823;29;20217;-71
2022/05/05 04:46:40;;;;;;;14.83;13.23;;;;;;;10.80;100.00;100915.16;4950314;29;20210;-71
2022/05/05 04:49:08;;;;;;;15.40;13.73;;;;;;;10.83;100.00;100916.81;4938228;29;20305;-71
2022/05/05 04:51:34;;;;;;;14.37;12.87;;;;;;;10.86;100.00;100919.34;4943034;29;20228;-71
2022/05/05 04:54:00;;;;;;;15.80;13.90;;;;;;;10.90;100.00;100915.78;4947163;29;20691;-71
2022/05/05 04:56:27;;;;;;;14.93;12.47;;;;;;;10.94;100.00;100920.91;4938577;29;20214;-70
2022/05/05 04:58:53;;;;;;;15.17;13.57;;;;;;;10.98;100.00;100924.28;4941711;29;20234;-70
2022/05/05 05:01:19;;;;;;;15.93;13.33;;;;;;;11.01;100.00;100925.97;4942900;29;20423;-71
2022/05/05 05:03:47;;;;;;;14.60;13.07;;;;;;;11.04;100.00;100928.50;4944378;29;20199;-71
2022/05/05 05:06:14;;;;;;;15.30;12.63;;;;;;;11.06;100.00;100934.53;4940628;29;20234;-71
2022/05/05 05:08:42;;;;;;;13.77;12.27;;;;;;;11.10;100.00;100942.28;4935225;29;20227;-72
2022/05/05 05:11:09;;;;;;;15.67;13.10;;;;;;;11.14;100.00;100930.88;4939045;28;20200;-71
2022/05/05 05:13:36;;;;;;;17.57;13.90;;;;;;;11.18;100.00;100926.44;4946107;28;20994;-72
2022/05/05 05:16:03;;;;;;;16.43;13.17;;;;;;;11.20;100.00;100934.22;4943185;28;20201;-70
2022/05/05 05:18:30;;;;;;;16.97;13.03;;;;;;;11.22;100.00;100932.44;4943709;29;20267;-70
2022/05/05 05:20:57;;;;;;;15.50;13.23;;;;;;;11.23;100.00;100937.63;4944034;29;20203;-70
2022/05/05 05:23:24;;;;;;;17.33;13.20;;;;;;;11.26;100.00;100947.16;4948213;28;20200;-69
2022/05/05 05:25:51;;;;;;;15.23;12.83;;;;;;;11.25;100.00;100945.41;4942651;29;20280;-70
2022/05/05 05:28:18;;;;;;;15.07;12.87;;;;;;;11.25;100.00;100946.25;4942242;29;20228;-70
2022/05/05 05:30:44;;;;;;;13.77;12.47;;;;;;;11.30;100.00;100947.00;4944314;28;20220;-69
2022/05/05 05:33:11;;;;;;;16.03;12.63;;;;;;;11.33;100.00;100954.78;4942998;29;20221;-70
2022/05/05 05:35:37;;;;;;;13.97;12.47;;;;;;;11.36;100.00;100959.94;4936704;28;20226;-70
2022/05/05 05:38:06;;;;;;;14.00;11.90;;;;;;;11.39;100.00;100956.38;4940204;29;20247;-70
2022/05/05 05:40:32;;;;;;;15.83;13.40;;;;;;;11.42;100.00;100958.06;4942789;29;20210;-70
2022/05/05 05:42:59;;;;;;;15.77;13.10;;;;;;;11.45;100.00;100960.59;4938632;29;20211;-70
2022/05/05 05:45:25;;;;;;;18.03;13.67;;;;;;;11.49;100.00;100962.25;4937773;29;20210;-70
2022/05/05 05:47:52;;;;;;;18.83;12.87;;;;;;;11.52;100.00;100968.25;4938179;29;20231;-70
2022/05/05 05:50:18;;;;;;;14.90;12.63;;;;;;;11.55;100.00;100969.91;4946186;28;20215;-70
2022/05/05 05:52:44;;;;;;;14.50;12.40;;;;;;;11.57;100.00;100975.94;4938092;28;20211;-69
2022/05/05 05:55:12;;;;;;;15.93;13.00;;;;;;;11.61;100.00;100981.94;4938794;29;20211;-69
2022/05/05 05:57:39;;;;;;;16.57;13.10;;;;;;;11.65;100.00;100981.84;4943488;29;20568;-70
2022/05/05 06:00:06;;;;;;;16.33;13.43;;;;;;;11.65;100.00;100984.47;4944962;29;20203;-70
2022/05/05 06:05:22;;;;;;;14.83;12.47;;;;;;;11.73;100.00;100990.38;4935246;29;20213;-70
2022/05/05 06:07:48;;;;;;;14.73;12.57;;;;;;;11.80;100.00;100992.81;4942777;28;20638;-69
2022/05/05 06:10:18;;;;;;;19.97;14.03;;;;;;;11.86;100.00;100993.50;4941747;28;20211;-70
2022/05/05 06:12:45;;;;;;;15.47;12.80;;;;;;;11.94;100.00;100995.94;4941614;29;20195;-70
2022/05/05 06:15:11;;;;;;;15.30;13.57;;;;;;;11.99;100.00;100996.69;4945099;28;20536;-69
2022/05/05 06:17:42;;;;;;;17.83;13.10;;;;;;;12.04;100.00;101000.03;4947643;29;20202;-69
2022/05/05 06:20:09;;;;;;;15.50;12.40;;;;;;;12.19;100.00;101008.38;4941459;28;20209;-70
2022/05/05 06:22:37;;;;;;;16.27;13.23;;;;;;;12.29;100.00;101010.72;4941654;28;20218;-70
2022/05/05 06:25:04;;;;;;;14.33;12.37;;;;;;;12.42;100.00;101015.63;4943771;28;20203;-70
2022/05/05 06:27:32;;;;;;;15.07;12.80;;;;;;;12.54;100.00;101020.50;4940783;29;20220;-70
2022/05/05 06:30:00;;;;;;;16.53;12.77;;;;;;;12.69;100.00;101022.66;4946721;29;20196;-69
2022/05/05 06:32:27;;;;;;;13.83;11.43;;;;;;;12.78;100.00;101037.25;4936651;29;20206;-70
2022/05/05 06:34:54;;;;;;;15.33;11.93;;;;;;;13.03;100.00;101041.75;4941386;28;20561;-70
2022/05/05 06:37:20;;;;;;;14.63;11.67;;;;;;;13.16;100.00;101039.66;4932639;29;20211;-70
2022/05/05 06:39:47;;;;;;;13.97;11.97;;;;;;;13.34;100.00;101040.88;4936607;29;20234;-70
2022/05/05 06:42:13;;;;;;;13.63;11.00;;;;;;;13.40;100.00;101049.41;4945281;28;20203;-70
2022/05/05 06:44:43;;;;;;;16.13;11.20;;;;;;;13.43;100.00;101059.78;4935329;29;20573;-70
2022/05/05 06:47:10;;;;;;;12.13;9.87;;;;;;;13.57;100.00;101056.72;4940499;28;20291;-70
2022/05/05 06:49:36;;;;;;;10.63;9.53;;;;;;;13.68;100.00;101061.63;4937250;29;20245;-70
2022/05/05 06:52:04;;;;;;;12.53;10.37;;;;;;;13.68;99.77;101066.84;4940540;29;20210;-70
2022/05/05 06:54:30;;;;;;;13.40;9.93;;;;;;;13.80;100.00;101055.13;4943912;29;20207;-70
2022/05/05 06:56:57;;;;;;;12.93;10.00;;;;;;;13.94;99.76;101055.53;4942553;28;20777;-70
2022/05/05 06:59:24;;;;;;;11.03;8.73;;;;;;;14.01;97.17;101056.19;4935304;29;20303;-70
2022/05/05 07:01:57;;;;;;;11.90;9.47;;;;;;;13.99;96.86;101056.22;4945633;28;20211;-70
2022/05/05 07:07:11;;;;;;;12.00;9.23;;;;;;;14.25;95.23;101054.50;4942543;29;20217;-70
2022/05/05 07:12:22;;;;;;;11.77;9.00;;;;;;;14.52;92.14;101067.56;4942675;29;20204;-70
2022/05/05 07:14:48;;;;;;;10.70;8.70;;;;;;;14.57;91.05;101074.34;4933117;29;20664;-70
2022/05/05 07:17:16;;;;;;;9.70;8.70;;;;;;;14.75;91.78;101072.00;4939638;29;20215;-70
2022/05/05 07:19:43;;;;;;;10.37;8.50;;;;;;;14.82;89.23;101077.88;4941730;29;20217;-70
2022/05/05 07:22:10;;;;;;;11.17;9.10;;;;;;;14.91;89.79;101074.91;4941455;29;20207;-70
2022/05/05 07:24:36;;;;;;;10.33;8.50;;;;;;;15.04;89.81;101072.69;4937733;29;20216;-70
2022/05/05 07:27:05;;;;;;;12.23;9.00;;;;;;;15.27;90.40;101080.56;4944693;29;20223;-70
2022/05/05 07:29:31;;;;;;;10.03;8.50;;;;;;;15.40;89.36;101082.72;4940934;29;20231;-70
2022/05/05 07:31:58;;;;;;;9.90;8.80;;;;;;;15.66;88.29;101084.31;4943050;29;20696;-70
2022/05/05 07:34:26;;;;;;;9.63;8.33;;;;;;;15.70;89.22;101085.88;4938122;29;20219;-70
2022/05/05 07:36:52;;;;;;;11.33;8.90;;;;;;;15.85;86.18;101089.72;4947811;28;20194;-70
2022/05/05 07:39:19;;;;;;;9.63;8.67;;;;;;;15.93;84.26;101097.28;4936838;28;20242;-70
2022/05/05 07:41:45;;;;;;;9.20;8.20;;;;;;;15.84;83.29;101095.88;4946213;28;21000;-70
2022/05/05 07:44:11;;;;;;;11.93;8.27;;;;;;;15.82;86.84;101100.34;4946248;29;20283;-70
2022/05/05 07:46:38;;;;;;;9.20;8.30;;;;;;;15.79;84.59;101103.94;4943927;28;20574;-70
2022/05/05 07:49:06;;;;;;;9.27;8.37;;;;;;;15.66;82.71;101100.94;4947794;29;20230;-70
2022/05/05 07:51:35;;;;;;;9.90;8.63;;;;;;;15.64;84.72;101097.50;4945725;28;20225;-70
2022/05/05 07:56:46;;;;;;;12.50;8.97;;;;;;;15.66;88.56;101093.03;4936910;29;20210;-70
2022/05/05 07:59:13;;;;;;;9.43;8.53;;;;;;;15.53;85.99;101108.44;4946885;29;20214;-70
2022/05/05 08:01:39;;;;;;;9.23;8.33;;;;;;;15.53;85.12;101107.56;4946860;28;20206;-70
2022/05/05 08:04:06;;;;;;;11.57;9.07;;;;;;;15.50;86.39;101110.34;4948363;29;20199;-70
2022/05/05 08:06:34;;;;;;;10.50;8.53;;;;;;;15.45;87.94;101110.50;4939408;28;20207;-70
2022/05/05 08:09:00;;;;;;;10.80;9.00;;;;;;;15.42;88.51;101120.28;4937327;29;20219;-70
2022/05/05 08:11:28;;;;;;;10.20;8.83;;;;;;;15.31;87.22;101120.69;4941312;29;20207;-70
2022/05/05 08:13:54;;;;;;;10.53;9.43;;;;;;;15.29;90.42;101126.00;4950633;29;20276;-70
2022/05/05 08:16:21;;;;;;;10.27;9.20;;;;;;;15.08;90.29;101119.78;4949170;28;20542;-70
2022/05/05 08:18:48;;;;;;;10.50;9.37;;;;;;;14.98;93.34;101125.44;4947584;29;20219;-70
2022/05/05 08:21:15;;;;;;;10.80;9.50;;;;;;;14.89;96.15;101121.38;4941326;29;20314;-70
2022/05/05 08:23:43;;;;;;;11.90;9.70;;;;;;;14.74;95.60;101135.94;4947699;29;20228;-70
2022/05/05 08:28:53;;;;;;;11.87;10.67;;;;;;;14.47;96.84;101142.94;4942663;29;20219;-70
2022/05/05 08:31:20;;;;;;;12.43;10.53;;;;;;;14.54;95.55;101150.53;4948087;28;20216;-70
2022/05/05 08:33:47;;;;;;;11.33;10.03;;;;;;;14.63;96.46;101144.16;4947721;29;20850;-70
2022/05/05 08:36:14;;;;;;;12.33;11.07;;;;;;;14.64;95.31;101151.13;4940084;29;20201;-70
2022/05/05 08:38:40;;;;;;;12.63;10.57;;;;;;;14.55;94.81;101146.16;4947455;29;20770;-70
2022/05/05 08:41:11;;;;;;;12.83;11.13;;;;;;;14.57;95.99;101147.81;4941360;29;20209;-70
2022/05/05 08:43:38;;;;;;;13.83;11.03;;;;;;;14.60;94.30;101143.41;4941743;28;20206;-70
2022/05/05 08:46:04;;;;;;;13.67;10.93;;;;;;;14.56;94.05;101156.63;4944579;29;20211;-70
2022/05/05 08:48:38;;;;;;;13.50;11.37;;;;;;;14.67;96.18;101148.41;4940424;29;20706;-70
2022/05/05 08:51:15;;;;;;;15.67;12.63;;;;;;;14.77;96.64;101149.78;4935627;29;20874;-70
2022/05/05 08:53:52;;;;;;;13.33;10.93;;;;;;;14.90;93.36;101160.72;4942743;28;20201;-70
2022/05/05 08:56:23;;;;;;;16.57;11.87;;;;;;;14.96;90.97;101160.47;4941769;28;20211;-70
2022/05/05 08:58:51;;;;;;;14.40;11.87;;;;;;;15.02;91.37;101155.91;4943082;29;20228;-70
2022/05/05 09:01:26;;;;;;;14.40;11.33;;;;;;;15.01;89.92;101157.69;4934370;29;20280;-70
2022/05/05 09:03:53;;;;;;;13.83;11.53;;;;;;;15.10;91.74;101156.50;4944255;28;20210;-70
2022/05/05 09:06:51;;;;;;;14.67;11.23;;;;;;;15.26;94.00;101156.78;4944024;28;20286;-70
2022/05/05 09:09:38;;;;;;;14.37;11.03;;;;;;;15.38;90.78;101156.34;4938729;29;20218;-70
2022/05/05 09:12:13;;;;;;;14.30;11.77;;;;;;;15.48;89.23;101159.47;4944896;29;20587;-70
2022/05/05 09:14:48;;;;;;;13.23;11.70;;;;;;;15.58;87.52;101171.31;4949307;28;20357;-71
2022/05/05 09:17:17;;;;;;;14.47;12.07;;;;;;;15.75;90.69;101168.09;4933348;29;20210;-71
2022/05/05 09:19:45;;;;;;;12.10;10.90;;;;;;;15.81;90.08;101169.63;4941029;29;20230;-70
2022/05/05 09:22:13;;;;;;;13.20;11.80;;;;;;;16.00;87.70;101175.84;4946544;29;20195;-69
2022/05/05 09:24:43;;;;;;;13.60;12.20;;;;;;;16.09;85.64;101175.50;4947412;29;20692;-71
2022/05/05 09:27:23;;;;;;;14.47;11.47;;;;;;;16.06;86.09;101174.78;4943652;29;20570;-71
2022/05/05 09:30:08;;;;;;;12.57;11.27;;;;;;;16.21;85.67;101179.38;4940948;29;20209;-71
2022/05/05 09:32:36;;;;;;;12.20;10.90;;;;;;;16.31;85.46;101181.66;4942171;29;20299;-69
2022/05/05 09:35:04;;;;;;;13.30;11.87;;;;;;;16.49;85.28;101177.41;4945604;29;20198;-70
2022/05/05 09:37:31;;;;;;;12.10;10.90;;;;;;;16.46;83.19;101181.00;4941729;28;20213;-69
2022/05/05 09:39:58;;;;;;;12.50;11.00;;;;;;;16.64;81.74;101180.25;4943289;28;20599;-71
2022/05/05 09:42:41;;;;;;;13.50;11.17;;;;;;;16.69;79.01;101182.66;4941622;29;20701;-70
2022/05/05 09:45:18;;;;;;;11.47;10.10;;;;;;;16.74;77.88;101187.75;4939543;29;20210;-71
2022/05/05 09:47:50;;;;;;;12.77;10.67;;;;;;;16.66;78.21;101193.34;4938941;29;20653;-71
2022/05/05 09:50:19;;;;;;;12.07;10.87;;;;;;;16.80;79.07;101193.59;4938255;29;20214;-71
2022/05/05 09:58:19;;;;;;;11.93;10.73;;;;;;;17.21;76.64;101200.66;4938961;29;20639;-72
2022/05/05 10:00:49;;;;;;;12.73;11.43;;;;;;;17.29;74.85;101195.91;4946100;29;20203;-71
2022/05/05 10:06:11;;;;;;;11.50;10.30;;;;;;;17.48;76.08;101202.94;4934844;29;20239;-71
2022/05/05 10:08:42;;;;;;;12.87;10.47;;;;;;;17.82;76.56;101198.72;4933605;28;20929;-70
2022/05/05 10:11:09;;;;;;;11.37;9.93;;;;;;;17.90;72.75;101208.03;4940960;29;20281;-70
2022/05/05 10:13:38;;;;;;;14.87;10.87;;;;;;;17.83;72.85;101208.38;4948124;28;20217;-71
2022/05/05 10:16:05;;;;;;;11.70;10.47;;;;;;;17.78;73.19;101203.28;4939442;28;20203;-70
2022/05/05 10:18:35;;;;;;;12.47;9.43;;;;;;;17.88;75.98;101209.03;4935919;28;20314;-71
2022/05/05 10:21:02;;;;;;;11.57;10.47;;;;;;;17.62;71.43;101211.06;4942728;29;20258;-71
2022/05/05 10:23:37;;;;;;;11.00;9.03;;;;;;;17.67;73.24;101202.97;4937082;28;20194;-72
2022/05/05 10:26:03;;;;;;;10.23;8.83;;;;;;;17.64;73.72;101209.22;4935240;29;20226;-70
2022/05/05 10:28:43;;;;;;;10.10;9.10;;;;;;;17.56;71.98;101209.56;4937701;29;20325;-71
2022/05/05 10:31:11;;;;;;;11.77;9.40;;;;;;;17.53;74.73;101201.81;4937391;28;20199;-70
2022/05/05 10:33:59;;;;;;;11.43;8.70;;;;;;;17.48;73.04;101206.44;4938478;29;20629;-69
2022/05/05 10:36:26;;;;;;;12.23;9.67;;;;;;;17.68;70.26;101204.69;4941807;29;20662;-70
2022/05/05 10:38:53;;;;;;;11.57;9.00;;;;;;;17.79;70.34;101205.88;4933891;28;20215;-71
2022/05/05 10:41:35;;;;;;;10.50;9.47;;;;;;;17.97;68.52;101212.06;4943015;28;20206;-71
2022/05/05 10:44:21;;;;;;;10.33;9.17;;;;;;;18.27;70.29;101202.75;4935474;29;20254;-71
2022/05/05 10:46:57;;;;;;;9.87;8.87;;;;;;;18.60;67.84;101204.66;4941568;29;20732;-71
2022/05/05 10:49:44;;;;;;;11.07;8.73;;;;;;;18.98;68.52;101204.47;4938032;29;20234;-70
2022/05/05 10:52:30;;;;;;;10.60;8.77;;;;;;;19.05;64.99;101205.88;4943515;29;20203;-71
2022/05/05 10:54:57;;;;;;;9.37;8.03;;;;;;;19.05;64.60;101203.22;4945975;28;20194;-71
2022/05/05 10:57:39;;;;;;;9.57;8.57;;;;;;;18.80;64.73;101207.13;4934958;28;20802;-71
2022/05/05 11:00:08;;;;;;;10.97;8.70;;;;;;;18.83;63.18;101209.63;4946633;28;20198;-71
2022/05/05 11:02:36;;;;;;;10.60;8.43;;;;;;;18.65;62.25;101211.41;4942112;28;20211;-72
2022/05/05 11:05:26;;;;;;;11.87;8.33;;;;;;;18.70;63.80;101211.19;4939143;29;20199;-71
2022/05/05 11:07:53;;;;;;;10.00;8.50;;;;;;;18.80;63.90;101195.69;4943395;29;20352;-71
2022/05/05 11:10:45;;;;;;;10.33;7.83;;;;;;;18.80;65.63;101196.53;4936016;28;20210;-72
2022/05/05 11:13:35;;;;;;;8.97;7.37;;;;;;;18.63;62.94;101205.34;4933821;28;20266;-70
2022/05/05 11:22:09;;;;;;;8.77;6.80;;;;;;;18.83;62.14;101208.78;4937151;28;20680;-71
2022/05/05 11:24:37;;;;;;;7.50;6.77;;;;;;;18.73;64.07;101213.66;4944281;28;20208;-68
2022/05/05 11:27:04;;;;;;;9.37;6.80;;;;;;;18.61;60.53;101219.53;4937250;29;20199;-71
2022/05/05 11:29:31;;;;;;;7.07;6.37;;;;;;;18.44;60.72;101223.06;4941102;28;20241;-68
2022/05/05 11:32:00;;;;;;;8.37;6.00;;;;;;;18.74;60.84;101216.22;4941390;29;20226;-71
2022/05/05 11:34:33;;;;;;;7.83;5.83;;;;;;;18.91;60.07;101220.66;4942688;28;20206;-71
2022/05/05 11:37:01;;;;;;;5.43;4.70;;;;;;;19.04;55.08;101228.81;4947143;28;20559;-71
2022/05/05 11:39:28;;;;;;;4.90;4.50;;;;;;;19.06;55.03;101226.09;4942369;28;20246;-71
2022/05/05 11:41:59;;;;;;;4.40;4.00;;;;;;;19.13;53.43;101226.63;4947128;28;20654;-71
2022/05/05 11:44:27;;;;;;;5.33;4.60;;;;;;;19.12;52.72;101220.50;4947019;28;20732;-71
2022/05/05 11:46:54;;;;;;;5.17;4.67;;;;;;;18.96;52.29;101222.22;4944620;29;20199;-71
2022/05/05 11:49:24;;;;;;;7.00;5.10;;;;;;;18.87;55.34;101207.69;4945591;28;21946;-71
2022/05/05 11:51:55;;;;;;;5.23;4.73;;;;;;;18.78;53.13;101223.97;4946765;28;20211;-71
2022/05/05 11:54:26;;;;;;;7.07;5.40;;;;;;;18.98;57.23;101207.13;4943435;28;20698;-71
2022/05/05 11:56:53;;;;;;;6.50;5.40;;;;;;;19.06;52.19;101210.22;4942407;29;20211;-71
2022/05/05 12:02:12;;;;;;;6.67;5.70;;;;;;;19.54;55.16;101199.75;4947583;29;20674;-71
2022/05/05 12:04:44;;;;;;;7.73;5.70;;;;;;;19.74;55.02;101196.06;4948412;28;20242;-72